sensor_id;sensor_type;location;lat;lon;timestamp;temperature;humidity
13880;DHT22;7010;48.200;16.332;2023-03-14T00:01:11;9.50;99.90
13880;DHT22;7010;48.200;16.332;2023-03-14T00:03:40;9.50;99.90
13880;DHT22;7010;48.200;16.332;2023-03-14T00:06:10;9.40;99.90
13880;DHT22;7010;48.200;16.332;2023-03-14T00:08:39;9.40;99.90
13880;DHT22;7010;48.200;16.332;2023-03-14T00:11:11;9.30;99.90
13880;DHT22;7010;48.200;16.332;2023-03-14T00:13:39;9.20;99.90
13880;DHT22;7010;48.200;16.332;2023-03-14T00:16:09;9.20;99.90
13880;DHT22;7010;48.200;16.332;2023-03-14T00:18:38;9.20;99.90
13880;DHT22;7010;48.200;16.332;2023-03-14T00:21:10;9.20;99.90
13880;DHT22;7010;48.200;16.332;2023-03-14T00:23:40;9.20;99.90
13880;DHT22;7010;48.200;16.332;2023-03-14T00:26:10;9.20;99.90
13880;DHT22;7010;48.200;16.332;2023-03-14T00:28:39;9.20;99.90
13880;DHT22;7010;48.200;16.332;2023-03-14T00:31:09;9.10;99.90
13880;DHT22;7010;48.200;16.332;2023-03-14T00:33:38;9.10;99.90
13880;DHT22;7010;48.200;16.332;2023-03-14T00:36:11;9.10;99.90
13880;DHT22;7010;48.200;16.332;2023-03-14T00:38:40;9.10;99.90
13880;DHT22;7010;48.200;16.332;2023-03-14T00:41:11;9.10;99.90
13880;DHT22;7010;48.200;16.332;2023-03-14T00:43:39;9.00;99.90
13880;DHT22;7010;48.200;16.332;2023-03-14T00:46:08;9.00;99.90
13880;DHT22;7010;48.200;16.332;2023-03-14T00:48:37;8.90;99.90
13880;DHT22;7010;48.200;16.332;2023-03-14T00:51:07;8.80;99.90
13880;DHT22;7010;48.200;16.332;2023-03-14T00:53:38;8.80;99.90
13880;DHT22;7010;48.200;16.332;2023-03-14T00:56:09;8.70;99.90
13880;DHT22;7010;48.200;16.332;2023-03-14T00:58:38;8.70;99.90
13880;DHT22;7010;48.200;16.332;2023-03-14T01:01:08;8.70;99.90
13880;DHT22;7010;48.200;16.332;2023-03-14T01:03:37;8.60;99.90
13880;DHT22;7010;48.200;16.332;2023-03-14T01:06:11;8.70;99.90
13880;DHT22;7010;48.200;16.332;2023-03-14T01:08:41;8.60;99.90
13880;DHT22;7010;48.200;16.332;2023-03-14T01:11:15;8.60;99.90
13880;DHT22;7010;48.200;16.332;2023-03-14T01:13:43;8.60;99.90
13880;DHT22;7010;48.200;16.332;2023-03-14T01:16:13;8.60;99.90
13880;DHT22;7010;48.200;16.332;2023-03-14T01:18:43;8.50;99.90
13880;DHT22;7010;48.200;16.332;2023-03-14T01:21:13;8.50;99.90
13880;DHT22;7010;48.200;16.332;2023-03-14T01:23:44;8.40;99.90
13880;DHT22;7010;48.200;16.332;2023-03-14T01:26:15;8.40;99.90
13880;DHT22;7010;48.200;16.332;2023-03-14T01:28:46;8.40;99.90
13880;DHT22;7010;48.200;16.332;2023-03-14T01:31:15;8.40;99.90
13880;DHT22;7010;48.200;16.332;2023-03-14T01:33:44;8.40;99.90
13880;DHT22;7010;48.200;16.332;2023-03-14T01:36:13;8.40;99.90
13880;DHT22;7010;48.200;16.332;2023-03-14T01:38:43;8.40;99.90
13880;DHT22;7010;48.200;16.332;2023-03-14T01:41:15;8.40;99.90
13880;DHT22;7010;48.200;16.332;2023-03-14T01:43:43;8.40;99.90
13880;DHT22;7010;48.200;16.332;2023-03-14T01:46:24;8.30;99.90
13880;DHT22;7010;48.200;16.332;2023-03-14T01:48:57;8.30;99.90
13880;DHT22;7010;48.200;16.332;2023-03-14T01:51:30;8.30;99.90
13880;DHT22;7010;48.200;16.332;2023-03-14T01:54:04;8.30;99.90
13880;DHT22;7010;48.200;16.332;2023-03-14T01:56:36;8.30;99.90
13880;DHT22;7010;48.200;16.332;2023-03-14T01:59:06;8.30;99.90
13880;DHT22;7010;48.200;16.332;2023-03-14T02:01:36;8.30;99.90
13880;DHT22;7010;48.200;16.332;2023-03-14T02:04:06;8.20;99.90
13880;DHT22;7010;48.200;16.332;2023-03-14T02:06:42;8.20;99.90
13880;DHT22;7010;48.200;16.332;2023-03-14T02:09:14;8.20;99.90
13880;DHT22;7010;48.200;16.332;2023-03-14T02:11:43;8.20;99.90
13880;DHT22;7010;48.200;16.332;2023-03-14T02:14:21;8.10;99.90
13880;DHT22;7010;48.200;16.332;2023-03-14T02:16:53;8.10;99.90
13880;DHT22;7010;48.200;16.332;2023-03-14T02:19:31;8.10;99.90
13880;DHT22;7010;48.200;16.332;2023-03-14T02:22:08;8.10;99.90
13880;DHT22;7010;48.200;16.332;2023-03-14T02:24:45;8.10;99.90
13880;DHT22;7010;48.200;16.332;2023-03-14T02:27:17;8.10;99.90
13880;DHT22;7010;48.200;16.332;2023-03-14T02:29:50;8.10;99.90
13880;DHT22;7010;48.200;16.332;2023-03-14T02:32:20;8.10;99.90
13880;DHT22;7010;48.200;16.332;2023-03-14T02:34:51;8.00;99.90
13880;DHT22;7010;48.200;16.332;2023-03-14T02:37:23;8.00;99.90
13880;DHT22;7010;48.200;16.332;2023-03-14T02:39:53;8.00;99.90
13880;DHT22;7010;48.200;16.332;2023-03-14T02:42:23;8.00;99.90
13880;DHT22;7010;48.200;16.332;2023-03-14T02:44:54;8.00;99.90
13880;DHT22;7010;48.200;16.332;2023-03-14T02:47:26;8.00;99.90
13880;DHT22;7010;48.200;16.332;2023-03-14T02:49:59;8.00;99.90
13880;DHT22;7010;48.200;16.332;2023-03-14T02:52:29;8.00;99.90
13880;DHT22;7010;48.200;16.332;2023-03-14T02:54:57;8.00;99.90
13880;DHT22;7010;48.200;16.332;2023-03-14T02:57:27;8.10;99.90
13880;DHT22;7010;48.200;16.332;2023-03-14T02:59:58;8.10;99.90
13880;DHT22;7010;48.200;16.332;2023-03-14T03:02:27;8.10;99.90
13880;DHT22;7010;48.200;16.332;2023-03-14T03:04:55;8.20;99.90
13880;DHT22;7010;48.200;16.332;2023-03-14T03:07:23;8.20;99.90
13880;DHT22;7010;48.200;16.332;2023-03-14T03:09:52;8.20;99.90
13880;DHT22;7010;48.200;16.332;2023-03-14T03:12:20;8.20;99.90
13880;DHT22;7010;48.200;16.332;2023-03-14T03:14:50;8.20;99.90
13880;DHT22;7010;48.200;16.332;2023-03-14T03:17:18;8.20;99.90
13880;DHT22;7010;48.200;16.332;2023-03-14T03:19:47;8.20;99.90
13880;DHT22;7010;48.200;16.332;2023-03-14T03:22:15;8.20;99.90
13880;DHT22;7010;48.200;16.332;2023-03-14T03:24:43;8.10;99.90
13880;DHT22;7010;48.200;16.332;2023-03-14T03:27:12;8.10;99.90
13880;DHT22;7010;48.200;16.332;2023-03-14T03:29:40;8.10;99.90
13880;DHT22;7010;48.200;16.332;2023-03-14T03:32:10;8.10;99.90
13880;DHT22;7010;48.200;16.332;2023-03-14T03:34:38;8.10;99.90
13880;DHT22;7010;48.200;16.332;2023-03-14T03:37:07;8.10;99.90
13880;DHT22;7010;48.200;16.332;2023-03-14T03:39:35;8.10;99.90
13880;DHT22;7010;48.200;16.332;2023-03-14T03:42:03;8.10;99.90
13880;DHT22;7010;48.200;16.332;2023-03-14T03:44:32;8.10;99.90
13880;DHT22;7010;48.200;16.332;2023-03-14T03:47:00;8.20;99.90
13880;DHT22;7010;48.200;16.332;2023-03-14T03:49:30;8.20;99.90
13880;DHT22;7010;48.200;16.332;2023-03-14T03:51:59;8.20;99.90
13880;DHT22;7010;48.200;16.332;2023-03-14T03:54:27;8.20;99.90
13880;DHT22;7010;48.200;16.332;2023-03-14T03:56:56;8.30;99.90
13880;DHT22;7010;48.200;16.332;2023-03-14T03:59:25;8.30;99.90
13880;DHT22;7010;48.200;16.332;2023-03-14T04:01:53;8.20;99.90
13880;DHT22;7010;48.200;16.332;2023-03-14T04:04:22;8.20;99.90
13880;DHT22;7010;48.200;16.332;2023-03-14T04:06:52;8.20;99.90
13880;DHT22;7010;48.200;16.332;2023-03-14T04:09:20;8.20;99.90
13880;DHT22;7010;48.200;16.332;2023-03-14T04:11:49;8.10;99.90
13880;DHT22;7010;48.200;16.332;2023-03-14T04:14:17;8.10;99.90
13880;DHT22;7010;48.200;16.332;2023-03-14T04:16:45;8.10;99.90
13880;DHT22;7010;48.200;16.332;2023-03-14T04:19:13;8.00;99.90
13880;DHT22;7010;48.200;16.332;2023-03-14T04:21:42;8.00;99.90
13880;DHT22;7010;48.200;16.332;2023-03-14T04:24:15;8.00;99.90
13880;DHT22;7010;48.200;16.332;2023-03-14T04:26:43;8.00;99.90
13880;DHT22;7010;48.200;16.332;2023-03-14T04:29:12;8.00;99.90
13880;DHT22;7010;48.200;16.332;2023-03-14T04:31:40;8.00;99.90
13880;DHT22;7010;48.200;16.332;2023-03-14T04:34:09;8.10;99.90
13880;DHT22;7010;48.200;16.332;2023-03-14T04:36:37;8.30;99.90
13880;DHT22;7010;48.200;16.332;2023-03-14T04:39:06;8.50;99.90
13880;DHT22;7010;48.200;16.332;2023-03-14T04:41:36;8.60;99.90
13880;DHT22;7010;48.200;16.332;2023-03-14T04:44:04;8.70;99.90
13880;DHT22;7010;48.200;16.332;2023-03-14T04:46:33;8.80;99.90
13880;DHT22;7010;48.200;16.332;2023-03-14T04:49:01;8.80;99.90
13880;DHT22;7010;48.200;16.332;2023-03-14T04:51:29;8.90;99.90
13880;DHT22;7010;48.200;16.332;2023-03-14T04:53:57;8.90;99.90
13880;DHT22;7010;48.200;16.332;2023-03-14T04:56:26;9.00;99.90
13880;DHT22;7010;48.200;16.332;2023-03-14T04:58:58;9.10;99.90
13880;DHT22;7010;48.200;16.332;2023-03-14T05:01:26;9.20;99.90
13880;DHT22;7010;48.200;16.332;2023-03-14T05:03:55;9.20;99.90
13880;DHT22;7010;48.200;16.332;2023-03-14T05:06:23;9.20;99.90
13880;DHT22;7010;48.200;16.332;2023-03-14T05:08:52;9.30;99.90
13880;DHT22;7010;48.200;16.332;2023-03-14T05:11:20;9.30;99.90
13880;DHT22;7010;48.200;16.332;2023-03-14T05:13:48;9.30;99.90
13880;DHT22;7010;48.200;16.332;2023-03-14T05:16:18;9.30;99.90
13880;DHT22;7010;48.200;16.332;2023-03-14T05:18:46;9.30;99.90
13880;DHT22;7010;48.200;16.332;2023-03-14T05:21:15;9.30;99.90
13880;DHT22;7010;48.200;16.332;2023-03-14T05:23:43;9.30;99.90
13880;DHT22;7010;48.200;16.332;2023-03-14T05:26:11;9.30;99.90
13880;DHT22;7010;48.200;16.332;2023-03-14T05:28:40;9.30;99.90
13880;DHT22;7010;48.200;16.332;2023-03-14T05:31:09;9.30;99.90
13880;DHT22;7010;48.200;16.332;2023-03-14T05:33:38;9.30;99.90
13880;DHT22;7010;48.200;16.332;2023-03-14T05:36:08;9.20;99.90
13880;DHT22;7010;48.200;16.332;2023-03-14T05:38:36;9.20;99.90
13880;DHT22;7010;48.200;16.332;2023-03-14T05:41:05;9.30;99.90
13880;DHT22;7010;48.200;16.332;2023-03-14T05:43:33;9.30;99.90
13880;DHT22;7010;48.200;16.332;2023-03-14T05:46:01;9.30;99.90
13880;DHT22;7010;48.200;16.332;2023-03-14T05:48:30;9.30;99.90
13880;DHT22;7010;48.200;16.332;2023-03-14T05:51:00;9.40;99.90
13880;DHT22;7010;48.200;16.332;2023-03-14T05:53:29;9.40;99.90
13880;DHT22;7010;48.200;16.332;2023-03-14T05:55:57;9.40;99.90
13880;DHT22;7010;48.200;16.332;2023-03-14T05:58:25;9.50;99.90
13880;DHT22;7010;48.200;16.332;2023-03-14T06:00:54;9.40;99.90
13880;DHT22;7010;48.200;16.332;2023-03-14T06:03:22;9.40;99.90
13880;DHT22;7010;48.200;16.332;2023-03-14T06:05:51;9.50;99.90
13880;DHT22;7010;48.200;16.332;2023-03-14T06:08:20;9.40;99.90
13880;DHT22;7010;48.200;16.332;2023-03-14T06:10:49;9.40;99.90
13880;DHT22;7010;48.200;16.332;2023-03-14T06:13:17;9.40;99.90
13880;DHT22;7010;48.200;16.332;2023-03-14T06:15:46;9.40;99.90
13880;DHT22;7010;48.200;16.332;2023-03-14T06:18:17;9.40;99.90
13880;DHT22;7010;48.200;16.332;2023-03-14T06:20:45;9.30;99.90
13880;DHT22;7010;48.200;16.332;2023-03-14T06:23:14;9.30;99.90
13880;DHT22;7010;48.200;16.332;2023-03-14T06:25:44;9.30;99.90
13880;DHT22;7010;48.200;16.332;2023-03-14T06:28:13;9.30;99.90
13880;DHT22;7010;48.200;16.332;2023-03-14T06:30:42;9.30;99.90
13880;DHT22;7010;48.200;16.332;2023-03-14T06:33:10;9.30;99.90
13880;DHT22;7010;48.200;16.332;2023-03-14T06:35:38;9.30;99.90
13880;DHT22;7010;48.200;16.332;2023-03-14T06:38:07;9.30;99.90
13880;DHT22;7010;48.200;16.332;2023-03-14T06:40:35;9.40;99.90
13880;DHT22;7010;48.200;16.332;2023-03-14T06:43:05;9.40;99.90
13880;DHT22;7010;48.200;16.332;2023-03-14T06:45:33;9.40;99.90
13880;DHT22;7010;48.200;16.332;2023-03-14T06:48:02;9.40;99.90
13880;DHT22;7010;48.200;16.332;2023-03-14T06:50:30;9.40;99.90
13880;DHT22;7010;48.200;16.332;2023-03-14T06:52:58;9.50;99.90
13880;DHT22;7010;48.200;16.332;2023-03-14T06:55:27;9.50;99.90
13880;DHT22;7010;48.200;16.332;2023-03-14T06:57:55;9.60;99.90
13880;DHT22;7010;48.200;16.332;2023-03-14T07:00:25;9.60;99.90
13880;DHT22;7010;48.200;16.332;2023-03-14T07:02:56;9.70;99.90
13880;DHT22;7010;48.200;16.332;2023-03-14T07:05:25;9.70;99.90
13880;DHT22;7010;48.200;16.332;2023-03-14T07:07:53;9.70;99.90
13880;DHT22;7010;48.200;16.332;2023-03-14T07:10:22;9.70;99.90
13880;DHT22;7010;48.200;16.332;2023-03-14T07:12:53;9.80;99.90
13880;DHT22;7010;48.200;16.332;2023-03-14T07:15:21;9.90;99.90
13880;DHT22;7010;48.200;16.332;2023-03-14T07:17:51;10.00;99.90
13880;DHT22;7010;48.200;16.332;2023-03-14T07:20:19;10.00;99.90
13880;DHT22;7010;48.200;16.332;2023-03-14T07:22:48;10.10;99.90
13880;DHT22;7010;48.200;16.332;2023-03-14T07:25:19;10.10;99.90
13880;DHT22;7010;48.200;16.332;2023-03-14T07:27:48;10.10;99.90
13880;DHT22;7010;48.200;16.332;2023-03-14T07:30:17;10.10;99.90
13880;DHT22;7010;48.200;16.332;2023-03-14T07:32:47;10.10;99.90
13880;DHT22;7010;48.200;16.332;2023-03-14T07:35:19;10.10;99.90
13880;DHT22;7010;48.200;16.332;2023-03-14T07:37:47;10.20;99.90
13880;DHT22;7010;48.200;16.332;2023-03-14T07:40:16;10.10;99.90
13880;DHT22;7010;48.200;16.332;2023-03-14T07:42:44;10.20;99.90
13880;DHT22;7010;48.200;16.332;2023-03-14T07:45:13;10.30;99.90
13880;DHT22;7010;48.200;16.332;2023-03-14T07:47:41;10.30;99.90
13880;DHT22;7010;48.200;16.332;2023-03-14T07:50:10;10.50;99.90
13880;DHT22;7010;48.200;16.332;2023-03-14T07:52:40;10.60;99.90
13880;DHT22;7010;48.200;16.332;2023-03-14T07:55:09;11.10;99.90
13880;DHT22;7010;48.200;16.332;2023-03-14T07:57:40;11.40;99.90
13880;DHT22;7010;48.200;16.332;2023-03-14T08:00:10;11.60;99.90
13880;DHT22;7010;48.200;16.332;2023-03-14T08:02:42;11.70;99.90
13880;DHT22;7010;48.200;16.332;2023-03-14T08:05:10;11.90;99.90
13880;DHT22;7010;48.200;16.332;2023-03-14T08:07:40;12.00;99.90
13880;DHT22;7010;48.200;16.332;2023-03-14T08:10:10;12.00;99.90
13880;DHT22;7010;48.200;16.332;2023-03-14T08:12:41;12.00;99.90
13880;DHT22;7010;48.200;16.332;2023-03-14T08:15:10;12.00;99.90
13880;DHT22;7010;48.200;16.332;2023-03-14T08:17:38;12.10;99.90
13880;DHT22;7010;48.200;16.332;2023-03-14T08:20:08;12.10;99.90
13880;DHT22;7010;48.200;16.332;2023-03-14T08:22:40;12.10;99.90
13880;DHT22;7010;48.200;16.332;2023-03-14T08:25:08;12.20;99.90
13880;DHT22;7010;48.200;16.332;2023-03-14T08:27:37;12.20;99.90
13880;DHT22;7010;48.200;16.332;2023-03-14T08:30:09;12.30;99.90
13880;DHT22;7010;48.200;16.332;2023-03-14T08:32:38;12.30;99.90
13880;DHT22;7010;48.200;16.332;2023-03-14T08:35:07;12.30;99.90
13880;DHT22;7010;48.200;16.332;2023-03-14T08:37:37;12.30;99.90
13880;DHT22;7010;48.200;16.332;2023-03-14T08:40:08;12.30;99.90
13880;DHT22;7010;48.200;16.332;2023-03-14T08:42:37;12.40;99.90
13880;DHT22;7010;48.200;16.332;2023-03-14T08:45:07;12.30;99.90
13880;DHT22;7010;48.200;16.332;2023-03-14T08:47:36;12.30;99.90
13880;DHT22;7010;48.200;16.332;2023-03-14T08:50:06;12.40;99.90
13880;DHT22;7010;48.200;16.332;2023-03-14T08:52:41;12.50;99.90
13880;DHT22;7010;48.200;16.332;2023-03-14T08:55:11;12.40;99.90
13880;DHT22;7010;48.200;16.332;2023-03-14T08:57:40;12.40;99.90
13880;DHT22;7010;48.200;16.332;2023-03-14T09:00:10;12.50;99.90
13880;DHT22;7010;48.200;16.332;2023-03-14T09:02:41;12.50;99.90
13880;DHT22;7010;48.200;16.332;2023-03-14T09:05:10;12.40;99.90
13880;DHT22;7010;48.200;16.332;2023-03-14T09:07:39;12.50;99.90
13880;DHT22;7010;48.200;16.332;2023-03-14T09:10:11;12.50;99.90
13880;DHT22;7010;48.200;16.332;2023-03-14T09:12:39;12.50;99.90
13880;DHT22;7010;48.200;16.332;2023-03-14T09:15:09;12.50;99.90
13880;DHT22;7010;48.200;16.332;2023-03-14T09:17:37;12.60;99.90
13880;DHT22;7010;48.200;16.332;2023-03-14T09:20:10;12.60;99.90
13880;DHT22;7010;48.200;16.332;2023-03-14T09:22:38;12.70;99.90
13880;DHT22;7010;48.200;16.332;2023-03-14T09:25:07;12.70;99.90
13880;DHT22;7010;48.200;16.332;2023-03-14T09:27:38;12.70;99.90
13880;DHT22;7010;48.200;16.332;2023-03-14T09:30:07;12.70;99.90
13880;DHT22;7010;48.200;16.332;2023-03-14T09:32:38;12.80;99.90
13880;DHT22;7010;48.200;16.332;2023-03-14T09:35:07;12.80;99.90
13880;DHT22;7010;48.200;16.332;2023-03-14T09:37:36;12.80;99.90
13880;DHT22;7010;48.200;16.332;2023-03-14T09:40:06;12.80;99.90
13880;DHT22;7010;48.200;16.332;2023-03-14T09:42:39;12.80;99.90
13880;DHT22;7010;48.200;16.332;2023-03-14T09:45:13;12.80;99.90
13880;DHT22;7010;48.200;16.332;2023-03-14T09:47:45;12.80;99.90
13880;DHT22;7010;48.200;16.332;2023-03-14T09:50:26;12.80;99.90
13880;DHT22;7010;48.200;16.332;2023-03-14T09:53:02;12.70;99.90
13880;DHT22;7010;48.200;16.332;2023-03-14T09:55:32;12.70;99.90
13880;DHT22;7010;48.200;16.332;2023-03-14T09:58:10;12.70;99.90
13880;DHT22;7010;48.200;16.332;2023-03-14T10:00:42;12.60;99.90
13880;DHT22;7010;48.200;16.332;2023-03-14T10:03:24;12.60;99.90
13880;DHT22;7010;48.200;16.332;2023-03-14T10:05:53;12.70;99.90
13880;DHT22;7010;48.200;16.332;2023-03-14T10:08:23;12.70;99.90
13880;DHT22;7010;48.200;16.332;2023-03-14T10:10:51;12.80;99.90
13880;DHT22;7010;48.200;16.332;2023-03-14T10:13:24;12.80;99.90
13880;DHT22;7010;48.200;16.332;2023-03-14T10:15:55;12.90;99.90
13880;DHT22;7010;48.200;16.332;2023-03-14T10:18:28;12.90;99.90
13880;DHT22;7010;48.200;16.332;2023-03-14T10:21:11;13.00;99.90
13880;DHT22;7010;48.200;16.332;2023-03-14T10:23:45;13.10;99.90
13880;DHT22;7010;48.200;16.332;2023-03-14T10:26:17;13.20;99.90
13880;DHT22;7010;48.200;16.332;2023-03-14T10:28:50;13.20;99.90
13880;DHT22;7010;48.200;16.332;2023-03-14T10:31:24;13.20;99.90
13880;DHT22;7010;48.200;16.332;2023-03-14T10:34:01;13.30;99.90
13880;DHT22;7010;48.200;16.332;2023-03-14T10:36:30;13.30;99.90
13880;DHT22;7010;48.200;16.332;2023-03-14T10:39:21;13.30;99.90
13880;DHT22;7010;48.200;16.332;2023-03-14T10:41:53;13.30;99.90
13880;DHT22;7010;48.200;16.332;2023-03-14T10:44:25;13.30;99.90
13880;DHT22;7010;48.200;16.332;2023-03-14T10:46:59;13.20;99.90
13880;DHT22;7010;48.200;16.332;2023-03-14T10:49:29;13.00;99.90
13880;DHT22;7010;48.200;16.332;2023-03-14T10:52:02;12.90;99.90
13880;DHT22;7010;48.200;16.332;2023-03-14T10:54:40;12.80;99.90
13880;DHT22;7010;48.200;16.332;2023-03-14T10:57:11;12.70;99.90
13880;DHT22;7010;48.200;16.332;2023-03-14T10:59:42;12.60;99.90
13880;DHT22;7010;48.200;16.332;2023-03-14T11:02:37;12.60;99.90
13880;DHT22;7010;48.200;16.332;2023-03-14T11:05:20;12.50;99.90
13880;DHT22;7010;48.200;16.332;2023-03-14T11:07:56;12.50;99.90
13880;DHT22;7010;48.200;16.332;2023-03-14T11:10:31;12.40;99.90
13880;DHT22;7010;48.200;16.332;2023-03-14T11:13:14;12.40;99.90
13880;DHT22;7010;48.200;16.332;2023-03-14T11:15:52;12.30;99.90
13880;DHT22;7010;48.200;16.332;2023-03-14T11:18:43;12.30;99.90
13880;DHT22;7010;48.200;16.332;2023-03-14T11:21:14;12.20;99.90
13880;DHT22;7010;48.200;16.332;2023-03-14T11:23:53;12.20;99.90
13880;DHT22;7010;48.200;16.332;2023-03-14T11:26:29;12.20;99.90
13880;DHT22;7010;48.200;16.332;2023-03-14T11:29:12;12.20;99.90
13880;DHT22;7010;48.200;16.332;2023-03-14T11:31:47;12.10;99.90
13880;DHT22;7010;48.200;16.332;2023-03-14T11:34:17;12.10;99.90
13880;DHT22;7010;48.200;16.332;2023-03-14T11:36:51;12.10;99.90
13880;DHT22;7010;48.200;16.332;2023-03-14T11:39:21;12.00;99.90
13880;DHT22;7010;48.200;16.332;2023-03-14T11:41:51;12.00;99.90
13880;DHT22;7010;48.200;16.332;2023-03-14T11:44:23;12.00;99.90
13880;DHT22;7010;48.200;16.332;2023-03-14T11:46:59;11.90;99.90
13880;DHT22;7010;48.200;16.332;2023-03-14T11:49:34;11.90;99.90
13880;DHT22;7010;48.200;16.332;2023-03-14T11:52:10;11.80;99.90
13880;DHT22;7010;48.200;16.332;2023-03-14T11:54:42;11.80;99.90
13880;DHT22;7010;48.200;16.332;2023-03-14T11:57:15;11.80;99.90
13880;DHT22;7010;48.200;16.332;2023-03-14T11:59:50;11.70;99.90
13880;DHT22;7010;48.200;16.332;2023-03-14T12:02:27;11.70;99.90
13880;DHT22;7010;48.200;16.332;2023-03-14T12:08:22;11.60;99.90
13880;DHT22;7010;48.200;16.332;2023-03-14T12:10:54;11.40;99.90
13880;DHT22;7010;48.200;16.332;2023-03-14T12:13:28;11.30;99.90
13880;DHT22;7010;48.200;16.332;2023-03-14T12:15:58;11.30;99.90
13880;DHT22;7010;48.200;16.332;2023-03-14T12:18:30;11.30;99.90
13880;DHT22;7010;48.200;16.332;2023-03-14T12:21:01;11.30;99.90
13880;DHT22;7010;48.200;16.332;2023-03-14T12:23:37;11.30;99.90
13880;DHT22;7010;48.200;16.332;2023-03-14T12:26:16;11.20;99.90
13880;DHT22;7010;48.200;16.332;2023-03-14T12:28:49;11.20;99.90
13880;DHT22;7010;48.200;16.332;2023-03-14T12:31:38;11.20;99.90
13880;DHT22;7010;48.200;16.332;2023-03-14T12:34:32;11.10;99.90
13880;DHT22;7010;48.200;16.332;2023-03-14T12:37:29;11.10;99.90
13880;DHT22;7010;48.200;16.332;2023-03-14T12:40:15;11.10;99.90
13880;DHT22;7010;48.200;16.332;2023-03-14T12:42:56;11.10;99.90
13880;DHT22;7010;48.200;16.332;2023-03-14T12:45:28;11.10;99.90
13880;DHT22;7010;48.200;16.332;2023-03-14T12:48:03;11.10;99.90
13880;DHT22;7010;48.200;16.332;2023-03-14T12:50:40;11.10;99.90
13880;DHT22;7010;48.200;16.332;2023-03-14T12:53:38;11.10;99.90
13880;DHT22;7010;48.200;16.332;2023-03-14T12:56:22;11.10;99.90
13880;DHT22;7010;48.200;16.332;2023-03-14T12:59:33;11.10;99.90
13880;DHT22;7010;48.200;16.332;2023-03-14T13:02:17;11.10;99.90
13880;DHT22;7010;48.200;16.332;2023-03-14T13:04:50;11.10;99.90
13880;DHT22;7010;48.200;16.332;2023-03-14T13:08:01;11.10;99.90
13880;DHT22;7010;48.200;16.332;2023-03-14T13:10:27;11.10;99.90
13880;DHT22;7010;48.200;16.332;2023-03-14T13:13:15;11.10;99.90
13880;DHT22;7010;48.200;16.332;2023-03-14T13:15:46;11.10;99.90
13880;DHT22;7010;48.200;16.332;2023-03-14T13:18:24;11.00;99.90
13880;DHT22;7010;48.200;16.332;2023-03-14T13:21:01;11.00;99.90
13880;DHT22;7010;48.200;16.332;2023-03-14T13:23:34;11.00;99.90
13880;DHT22;7010;48.200;16.332;2023-03-14T13:26:05;11.00;99.90
13880;DHT22;7010;48.200;16.332;2023-03-14T13:28:34;11.00;99.90
13880;DHT22;7010;48.200;16.332;2023-03-14T13:31:03;11.00;99.90
13880;DHT22;7010;48.200;16.332;2023-03-14T13:33:33;11.00;99.90
13880;DHT22;7010;48.200;16.332;2023-03-14T13:36:04;11.00;99.90
13880;DHT22;7010;48.200;16.332;2023-03-14T13:38:35;11.00;99.90
13880;DHT22;7010;48.200;16.332;2023-03-14T13:41:06;11.00;99.90
13880;DHT22;7010;48.200;16.332;2023-03-14T13:43:39;11.00;99.90
13880;DHT22;7010;48.200;16.332;2023-03-14T13:46:13;11.00;99.90
13880;DHT22;7010;48.200;16.332;2023-03-14T13:48:45;11.00;99.90
13880;DHT22;7010;48.200;16.332;2023-03-14T13:51:16;11.00;99.90
13880;DHT22;7010;48.200;16.332;2023-03-14T13:53:48;11.00;99.90
13880;DHT22;7010;48.200;16.332;2023-03-14T13:56:18;11.00;99.90
13880;DHT22;7010;48.200;16.332;2023-03-14T13:58:47;11.00;99.90
13880;DHT22;7010;48.200;16.332;2023-03-14T14:01:18;11.00;99.90
13880;DHT22;7010;48.200;16.332;2023-03-14T14:03:49;11.00;99.90
13880;DHT22;7010;48.200;16.332;2023-03-14T14:06:31;11.00;99.90
13880;DHT22;7010;48.200;16.332;2023-03-14T14:09:03;11.00;99.90
13880;DHT22;7010;48.200;16.332;2023-03-14T14:11:43;11.00;99.90
13880;DHT22;7010;48.200;16.332;2023-03-14T14:14:33;11.00;99.90
13880;DHT22;7010;48.200;16.332;2023-03-14T14:17:05;11.00;99.90
13880;DHT22;7010;48.200;16.332;2023-03-14T14:19:37;10.90;99.90
13880;DHT22;7010;48.200;16.332;2023-03-14T14:22:08;10.90;99.90
13880;DHT22;7010;48.200;16.332;2023-03-14T14:24:38;11.00;99.90
13880;DHT22;7010;48.200;16.332;2023-03-14T14:27:12;11.00;99.90
13880;DHT22;7010;48.200;16.332;2023-03-14T14:29:41;11.00;99.90
13880;DHT22;7010;48.200;16.332;2023-03-14T14:32:13;11.00;99.90
13880;DHT22;7010;48.200;16.332;2023-03-14T14:34:44;11.00;99.90
13880;DHT22;7010;48.200;16.332;2023-03-14T14:37:19;11.10;99.90
13880;DHT22;7010;48.200;16.332;2023-03-14T14:39:51;11.10;99.90
13880;DHT22;7010;48.200;16.332;2023-03-14T14:42:21;11.10;99.90
13880;DHT22;7010;48.200;16.332;2023-03-14T14:44:52;11.20;99.90
13880;DHT22;7010;48.200;16.332;2023-03-14T14:47:23;11.20;99.90
13880;DHT22;7010;48.200;16.332;2023-03-14T14:49:53;11.30;99.90
13880;DHT22;7010;48.200;16.332;2023-03-14T14:52:31;11.20;99.90
13880;DHT22;7010;48.200;16.332;2023-03-14T14:55:02;11.20;99.90
13880;DHT22;7010;48.200;16.332;2023-03-14T14:57:33;11.20;99.90
13880;DHT22;7010;48.200;16.332;2023-03-14T15:00:06;11.20;99.90
13880;DHT22;7010;48.200;16.332;2023-03-14T15:02:45;11.10;99.90
13880;DHT22;7010;48.200;16.332;2023-03-14T15:05:15;11.10;99.90
13880;DHT22;7010;48.200;16.332;2023-03-14T15:07:44;11.10;99.90
13880;DHT22;7010;48.200;16.332;2023-03-14T15:10:16;11.10;99.90
13880;DHT22;7010;48.200;16.332;2023-03-14T15:12:45;11.20;99.90
13880;DHT22;7010;48.200;16.332;2023-03-14T15:15:15;11.20;99.90
13880;DHT22;7010;48.200;16.332;2023-03-14T15:17:44;11.20;99.90
13880;DHT22;7010;48.200;16.332;2023-03-14T15:20:14;11.20;99.90
13880;DHT22;7010;48.200;16.332;2023-03-14T15:22:42;11.20;99.90
13880;DHT22;7010;48.200;16.332;2023-03-14T15:25:11;11.10;99.90
13880;DHT22;7010;48.200;16.332;2023-03-14T15:28:01;11.00;99.90
13880;DHT22;7010;48.200;16.332;2023-03-14T15:30:30;10.90;99.90
13880;DHT22;7010;48.200;16.332;2023-03-14T15:32:58;10.90;99.90
13880;DHT22;7010;48.200;16.332;2023-03-14T15:35:27;10.90;99.90
13880;DHT22;7010;48.200;16.332;2023-03-14T15:37:55;10.80;99.90
13880;DHT22;7010;48.200;16.332;2023-03-14T15:40:24;10.90;99.90
13880;DHT22;7010;48.200;16.332;2023-03-14T15:42:56;10.80;99.90
13880;DHT22;7010;48.200;16.332;2023-03-14T15:45:26;10.90;99.90
13880;DHT22;7010;48.200;16.332;2023-03-14T15:47:55;10.90;99.90
13880;DHT22;7010;48.200;16.332;2023-03-14T15:50:23;10.90;99.90
13880;DHT22;7010;48.200;16.332;2023-03-14T15:52:52;10.90;99.90
13880;DHT22;7010;48.200;16.332;2023-03-14T15:55:23;10.90;99.90
13880;DHT22;7010;48.200;16.332;2023-03-14T15:57:51;10.90;99.90
13880;DHT22;7010;48.200;16.332;2023-03-14T16:00:21;10.90;99.90
13880;DHT22;7010;48.200;16.332;2023-03-14T16:02:51;10.90;99.90
13880;DHT22;7010;48.200;16.332;2023-03-14T16:05:20;10.80;99.90
13880;DHT22;7010;48.200;16.332;2023-03-14T16:07:48;10.90;99.90